createdAt,value
2023-04-01T00:00:02.318Z,999.2
2023-04-01T00:01:02.293Z,999.2
2023-04-01T00:03:03.082Z,999.2
2023-04-01T00:04:02.263Z,999.2
2023-04-01T00:05:02.085Z,999.2
2023-04-01T00:06:01.938Z,999.2
2023-04-01T00:07:01.963Z,999.2
2023-04-01T00:08:01.833Z,999.2
2023-04-01T00:09:01.914Z,999.2
2023-04-01T00:10:01.768Z,999.2
2023-04-01T00:11:01.845Z,999.2
2023-04-01T00:12:01.734Z,999.3
2023-04-01T00:13:01.785Z,999.2
2023-04-01T00:14:01.664Z,999.2
2023-04-01T00:15:02.705Z,999.2
2023-04-01T00:16:22.006Z,999.2
2023-04-01T00:18:02.409Z,999.1
2023-04-01T00:19:02.092Z,999.1
2023-04-01T00:20:02.180Z,999
2023-04-01T00:21:02.003Z,999.1
2023-04-01T00:22:02.073Z,999.1
2023-04-01T00:23:01.914Z,999.1
2023-04-01T00:24:01.989Z,999.1
2023-04-01T00:25:01.811Z,999.2
2023-04-01T00:26:01.796Z,999.1
2023-04-01T00:27:01.708Z,999.1
2023-04-01T00:28:01.748Z,999.1
2023-04-01T00:29:01.613Z,999.1
2023-04-01T00:30:01.721Z,999.1
2023-04-01T00:31:02.711Z,999.1
2023-04-01T00:32:02.457Z,999.2
2023-04-01T00:33:02.574Z,999.2
2023-04-01T00:34:02.366Z,999.2
2023-04-01T00:35:02.390Z,999.2
2023-04-01T00:36:02.222Z,999.1
2023-04-01T00:37:02.053Z,999.1
2023-04-01T00:38:02.158Z,999.1
2023-04-01T00:39:01.958Z,999.1
2023-04-01T00:40:02.038Z,999.1
2023-04-01T00:41:01.924Z,999.2
2023-04-01T00:42:01.928Z,999.2
2023-04-01T00:43:01.880Z,999.1
2023-04-01T00:44:01.901Z,999.1
2023-04-01T00:45:01.727Z,999.1
2023-04-01T00:46:01.775Z,999.1
2023-04-01T00:47:03.061Z,999.2
2023-04-01T00:48:01.909Z,999.1
2023-04-01T00:49:01.819Z,999.1
2023-04-01T00:50:01.675Z,999.2
2023-04-01T00:51:02.667Z,999.1
2023-04-01T00:52:02.699Z,999.1
2023-04-01T00:53:02.642Z,999.1
2023-04-01T00:54:02.551Z,999.2
2023-04-01T00:55:02.603Z,999.2
2023-04-01T00:56:02.456Z,999.2
2023-04-01T00:57:02.556Z,999.2
2023-04-01T00:58:02.454Z,999.2
2023-04-01T00:59:02.243Z,999.2
2023-04-01T01:00:02.805Z,999.2
2023-04-01T01:01:01.819Z,999.3
2023-04-01T01:02:02.348Z,999.2
2023-04-01T01:03:02.390Z,999.2
2023-04-01T01:04:02.104Z,999.3
2023-04-01T01:05:02.184Z,999.2
2023-04-01T01:06:01.985Z,999.3
2023-04-01T01:07:02.055Z,999.3
2023-04-01T01:08:01.886Z,999.2
2023-04-01T01:09:01.922Z,999.2
2023-04-01T01:10:01.819Z,999.2
2023-04-01T01:11:01.835Z,999.3
2023-04-01T01:12:01.720Z,999.3
2023-04-01T01:13:01.770Z,999.2
2023-04-01T01:14:02.709Z,999.3
2023-04-01T01:15:02.603Z,999.2
2023-04-01T01:16:02.587Z,999.2
2023-04-01T01:17:02.703Z,999.3
2023-04-01T01:18:02.917Z,999.2
2023-04-01T01:19:02.592Z,999.2
2023-04-01T01:20:03.224Z,999.2
2023-04-01T01:21:01.901Z,999.2
2023-04-01T01:22:01.949Z,999.2
2023-04-01T01:23:01.714Z,999.1
2023-04-01T01:24:01.851Z,999.1
2023-04-01T01:25:02.665Z,999.1
2023-04-01T01:26:02.673Z,999.1
2023-04-01T01:27:02.598Z,999.2
2023-04-01T01:28:02.496Z,999.1
2023-04-01T01:29:02.529Z,999.2
2023-04-01T01:30:02.433Z,999.2
2023-04-01T01:31:02.592Z,999.1
2023-04-01T01:32:02.562Z,999.1
2023-04-01T01:33:02.630Z,999.1
2023-04-01T01:34:02.560Z,999.1
2023-04-01T01:35:02.403Z,999
2023-04-01T01:36:02.544Z,999.1
2023-04-01T01:37:02.481Z,999
2023-04-01T01:38:02.302Z,999.1
2023-04-01T01:39:02.326Z,999
2023-04-01T01:40:02.294Z,999.1
2023-04-01T01:41:02.131Z,999
2023-04-01T01:42:02.346Z,999
2023-04-01T01:43:02.100Z,999
2023-04-01T01:44:02.215Z,999
2023-04-01T01:45:01.996Z,999
2023-04-01T01:46:02.239Z,999
2023-04-01T01:47:01.891Z,999
2023-04-01T01:48:02.177Z,999
2023-04-01T01:49:01.849Z,999
2023-04-01T01:50:01.959Z,999
2023-04-01T01:51:01.780Z,998.9
2023-04-01T01:52:01.810Z,999
2023-04-01T01:53:01.660Z,999
2023-04-01T01:54:02.716Z,999
2023-04-01T01:55:02.608Z,999
2023-04-01T01:56:02.664Z,998.9
2023-04-01T01:57:02.702Z,998.9
2023-04-01T01:58:02.573Z,998.9
2023-04-01T01:59:02.391Z,999
2023-04-01T02:00:02.474Z,998.9
2023-04-01T02:01:02.491Z,999
2023-04-01T02:02:02.420Z,999
2023-04-01T02:03:02.426Z,999
2023-04-01T02:04:02.385Z,998.9
2023-04-01T02:05:02.372Z,999
2023-04-01T02:06:02.216Z,999
2023-04-01T02:07:02.012Z,999
2023-04-01T02:08:02.067Z,999
2023-04-01T02:09:01.895Z,999
2023-04-01T02:10:02.021Z,999
2023-04-01T02:11:01.812Z,999
2023-04-01T02:12:01.815Z,999.1
2023-04-01T02:13:01.664Z,999
2023-04-01T02:14:01.732Z,999.1
2023-04-01T02:15:02.705Z,999.1
2023-04-01T02:16:02.753Z,999.1
2023-04-01T02:17:02.436Z,999
2023-04-01T02:18:02.736Z,999.1
2023-04-01T02:19:02.485Z,999.1
2023-04-01T02:20:02.583Z,999.1
2023-04-01T02:21:02.500Z,999
2023-04-01T02:22:02.599Z,999.1
2023-04-01T02:23:02.481Z,999
2023-04-01T02:24:02.531Z,999.1
2023-04-01T02:25:02.411Z,999.1
2023-04-01T02:26:02.415Z,999
2023-04-01T02:27:02.331Z,999.1
2023-04-01T02:28:02.243Z,999.1
2023-04-01T02:29:02.282Z,999.1
2023-04-01T02:30:02.093Z,999.1
2023-04-01T02:31:02.261Z,999
2023-04-01T02:32:01.996Z,999.2
2023-04-01T02:33:02.258Z,999.1
2023-04-01T02:34:01.954Z,999.1
2023-04-01T02:35:01.939Z,999.1
2023-04-01T02:36:01.905Z,999.2
2023-04-01T02:37:01.874Z,999.2
2023-04-01T02:38:01.707Z,999.2
2023-04-01T02:39:01.798Z,999.2
2023-04-01T02:40:01.711Z,999.2
2023-04-01T02:41:02.740Z,999.2
2023-04-01T02:42:02.584Z,999.2
2023-04-01T02:43:02.664Z,999.2
2023-04-01T02:44:02.538Z,999.3
2023-04-01T02:45:02.577Z,999.3
2023-04-01T02:46:02.414Z,999.2
2023-04-01T02:47:02.565Z,999.3
2023-04-01T02:48:02.704Z,999.2
2023-04-01T02:49:02.506Z,999.2
2023-04-01T02:50:02.451Z,999.2
2023-04-01T02:51:02.455Z,999.2
2023-04-01T02:52:02.369Z,999.2
2023-04-01T02:53:02.231Z,999.2
2023-04-01T02:54:02.517Z,999.3
2023-04-01T02:55:02.368Z,999.3
2023-04-01T02:56:02.260Z,999.3
2023-04-01T02:57:02.531Z,999.3
2023-04-01T02:58:02.309Z,999.3
2023-04-01T02:59:02.170Z,999.3
2023-04-01T03:00:04.168Z,999.2
2023-04-01T03:01:02.191Z,999.3
2023-04-01T03:02:02.319Z,999.3
2023-04-01T03:03:02.622Z,999.2
2023-04-01T03:04:02.465Z,999.3
2023-04-01T03:05:02.295Z,999.3
2023-04-01T03:06:02.360Z,999.3
2023-04-01T03:07:02.257Z,999.2
2023-04-01T03:08:02.148Z,999.3
2023-04-01T03:09:02.229Z,999.4
2023-04-01T03:10:02.075Z,999.3
2023-04-01T03:11:02.110Z,999.3
2023-04-01T03:12:01.958Z,999.3
2023-04-01T03:13:02.006Z,999.3
2023-04-01T03:14:01.836Z,999.3
2023-04-01T03:15:14.374Z,999.3
2023-04-01T03:16:02.474Z,999.3
2023-04-01T03:17:02.672Z,999.3
2023-04-01T03:18:02.896Z,999.3
2023-04-01T03:19:02.674Z,999.4
2023-04-01T03:20:02.739Z,999.3
2023-04-01T03:21:02.617Z,999.3
2023-04-01T03:22:02.746Z,999.3
2023-04-01T03:23:02.575Z,999.3
2023-04-01T03:24:02.783Z,999.3
2023-04-01T03:25:02.429Z,999.4
2023-04-01T03:26:02.540Z,999.3
2023-04-01T03:27:02.366Z,999.2
2023-04-01T03:28:02.411Z,999.3
2023-04-01T03:29:02.421Z,999.2
2023-04-01T03:30:02.268Z,999.3
2023-04-01T03:31:02.590Z,999.2
2023-04-01T03:33:02.292Z,999.3
2023-04-01T03:34:01.944Z,999.3
2023-04-01T03:35:02.035Z,999.3
2023-04-01T03:36:01.958Z,999.3
2023-04-01T03:37:01.856Z,999.3
2023-04-01T03:38:01.728Z,999.3
2023-04-01T03:39:01.783Z,999.3
2023-04-01T03:40:02.761Z,999.4
2023-04-01T03:41:02.609Z,999.3
2023-04-01T03:42:02.632Z,999.3
2023-04-01T03:43:02.781Z,999.3
2023-04-01T03:44:02.604Z,999.3
2023-04-01T03:45:02.444Z,999.3
2023-04-01T03:46:02.696Z,999.3
2023-04-01T03:48:02.589Z,999.3
2023-04-01T03:49:02.558Z,999.4
2023-04-01T03:50:02.406Z,999.3
2023-04-01T03:51:02.538Z,999.3
2023-04-01T03:52:02.395Z,999.3
2023-04-01T03:53:02.409Z,999.3
2023-04-01T03:54:02.331Z,999.4
2023-04-01T03:55:02.207Z,999.3
2023-04-01T03:56:02.238Z,999.4
2023-04-01T03:57:02.286Z,999.4
2023-04-01T03:58:02.060Z,999.3
2023-04-01T03:59:02.054Z,999.4
2023-04-01T04:00:02.810Z,999.3
2023-04-01T04:01:02.659Z,999.4
2023-04-01T04:03:02.222Z,999.4
2023-04-01T04:04:02.306Z,999.4
2023-04-01T04:05:01.984Z,999.4
2023-04-01T04:06:01.989Z,999.4
2023-04-01T04:07:01.890Z,999.4
2023-04-01T04:08:01.957Z,999.4
2023-04-01T04:09:01.819Z,999.3
2023-04-01T04:10:01.796Z,999.3
2023-04-01T04:11:01.658Z,999.3
2023-04-01T04:12:02.722Z,999.4
2023-04-01T04:13:02.605Z,999.3
2023-04-01T04:14:02.658Z,999.3
2023-04-01T04:15:02.495Z,999.3
2023-04-01T04:16:02.808Z,999.3
2023-04-01T04:17:02.315Z,999.4
2023-04-01T04:18:02.647Z,999.3
2023-04-01T04:19:02.476Z,999.4
2023-04-01T04:20:02.385Z,999.4
2023-04-01T04:21:02.521Z,999.3
2023-04-01T04:22:02.386Z,999.4
2023-04-01T04:23:02.204Z,999.4
2023-04-01T04:24:02.247Z,999.4
2023-04-01T04:25:02.064Z,999.4
2023-04-01T04:26:02.060Z,999.3
2023-04-01T04:27:01.934Z,999.4
2023-04-01T04:28:01.994Z,999.4
2023-04-01T04:29:01.806Z,999.4
2023-04-01T04:30:01.830Z,999.3
2023-04-01T04:31:01.652Z,999.3
2023-04-01T04:32:02.971Z,999.4
2023-04-01T04:33:01.857Z,999.4
2023-04-01T04:34:01.583Z,999.3
2023-04-01T04:35:02.678Z,999.3
2023-04-01T04:36:02.966Z,999.3
2023-04-01T04:37:01.700Z,999.3
2023-04-01T04:38:02.729Z,999.4
2023-04-01T04:39:02.565Z,999.4
2023-04-01T04:40:02.718Z,999.3
2023-04-01T04:41:02.482Z,999.4
2023-04-01T04:42:02.636Z,999.4
2023-04-01T04:43:02.388Z,999.3
2023-04-01T04:44:02.410Z,999.3
2023-04-01T04:45:02.388Z,999.4
2023-04-01T04:46:02.250Z,999.4
2023-04-01T04:47:02.062Z,999.3
2023-04-01T04:48:02.243Z,999.4
2023-04-01T04:49:01.962Z,999.3
2023-04-01T04:50:01.972Z,999.4
2023-04-01T04:51:01.797Z,999.4
2023-04-01T04:52:01.839Z,999.4
2023-04-01T04:53:01.678Z,999.4
2023-04-01T04:54:01.688Z,999.4
2023-04-01T04:55:02.692Z,999.4
2023-04-01T04:56:02.528Z,999.4
2023-04-01T04:57:02.714Z,999.4
2023-04-01T04:58:02.485Z,999.4
2023-04-01T04:59:02.584Z,999.4
2023-04-01T05:00:02.448Z,999.4
2023-04-01T05:01:02.583Z,999.4
2023-04-01T05:02:02.362Z,999.4
2023-04-01T05:03:02.231Z,999.5
2023-04-01T05:04:02.093Z,999.5
2023-04-01T05:05:02.018Z,999.5
2023-04-01T05:06:01.937Z,999.5
2023-04-01T05:07:01.885Z,999.5
2023-04-01T05:08:01.885Z,999.5
2023-04-01T05:09:01.733Z,999.5
2023-04-01T05:10:01.896Z,999.5
2023-04-01T05:11:02.758Z,999.5
2023-04-01T05:12:02.601Z,999.5
2023-04-01T05:13:02.557Z,999.5
2023-04-01T05:14:02.499Z,999.5
2023-04-01T05:15:02.589Z,999.5
2023-04-01T05:16:02.442Z,999.5
2023-04-01T05:17:02.489Z,999.5
2023-04-01T05:18:02.414Z,999.5
2023-04-01T05:19:02.273Z,999.5
2023-04-01T05:20:02.140Z,999.5
2023-04-01T05:21:02.152Z,999.5
2023-04-01T05:22:02.521Z,999.5
2023-04-01T05:23:02.226Z,999.5
2023-04-01T05:24:02.246Z,999.4
2023-04-01T05:25:02.086Z,999.5
2023-04-01T05:26:02.169Z,999.5
2023-04-01T05:27:02.189Z,999.5
2023-04-01T05:28:02.078Z,999.5
2023-04-01T05:29:01.934Z,999.5
2023-04-01T05:30:02.091Z,999.5
2023-04-01T05:31:02.307Z,999.5
2023-04-01T05:32:02.080Z,999.5
2023-04-01T05:33:01.999Z,999.5
2023-04-01T05:34:01.893Z,999.6
2023-04-01T05:35:01.831Z,999.6
2023-04-01T05:36:01.822Z,999.6
2023-04-01T05:37:02.762Z,999.5
2023-04-01T05:38:02.617Z,999.5
2023-04-01T05:39:02.673Z,999.5
2023-04-01T05:40:02.516Z,999.5
2023-04-01T05:41:02.566Z,999.5
2023-04-01T05:42:02.374Z,999.6
2023-04-01T05:43:02.456Z,999.5
2023-04-01T05:44:02.405Z,999.5
2023-04-01T05:45:02.300Z,999.6
2023-04-01T05:46:02.375Z,999.5
2023-04-01T05:47:02.390Z,999.6
2023-04-01T05:48:02.420Z,999.6
2023-04-01T05:49:02.265Z,999.6
2023-04-01T05:50:02.247Z,999.5
2023-04-01T05:51:02.069Z,999.6
2023-04-01T05:52:02.126Z,999.6
2023-04-01T05:53:01.976Z,999.6
2023-04-01T05:54:02.043Z,999.6
2023-04-01T05:55:01.885Z,999.6
2023-04-01T05:56:01.968Z,999.6
2023-04-01T05:57:01.906Z,999.6
2023-04-01T05:58:01.869Z,999.6
2023-04-01T05:59:01.685Z,999.6
2023-04-01T06:00:02.778Z,999.7
2023-04-01T06:01:16.602Z,999.7
2023-04-01T06:02:02.344Z,999.7
2023-04-01T06:03:02.846Z,999.6
2023-04-01T06:04:03.267Z,999.7
2023-04-01T06:05:02.020Z,999.6
2023-04-01T06:06:02.096Z,999.6
2023-04-01T06:07:02.295Z,999.6
2023-04-01T06:08:02.012Z,999.7
2023-04-01T06:09:02.079Z,999.7
2023-04-01T06:10:01.973Z,999.7
2023-04-01T06:11:02.064Z,999.7
2023-04-01T06:12:01.851Z,999.7
2023-04-01T06:13:01.840Z,999.7
2023-04-01T06:14:01.766Z,999.8
2023-04-01T06:15:01.812Z,999.7
2023-04-01T06:16:01.854Z,999.8
2023-04-01T06:17:02.565Z,999.7
2023-04-01T06:18:02.878Z,999.7
2023-04-01T06:19:02.559Z,999.7
2023-04-01T06:20:02.797Z,999.8
2023-04-01T06:21:02.605Z,999.8
2023-04-01T06:22:01.728Z,999.8
2023-04-01T06:23:02.765Z,999.7
2023-04-01T06:24:02.800Z,999.8
2023-04-01T06:25:02.621Z,999.8
2023-04-01T06:26:02.698Z,999.8
2023-04-01T06:27:02.723Z,999.8
2023-04-01T06:28:02.606Z,999.7
2023-04-01T06:29:02.745Z,999.8
2023-04-01T06:30:02.658Z,999.8
2023-04-01T06:31:02.672Z,999.8
2023-04-01T06:33:02.961Z,999.8
2023-04-01T06:34:01.645Z,999.8
2023-04-01T06:35:01.718Z,999.8
2023-04-01T06:36:02.964Z,999.9
2023-04-01T06:37:01.704Z,999.8
2023-04-01T06:38:02.689Z,999.9
2023-04-01T06:39:02.616Z,999.8
2023-04-01T06:40:02.705Z,999.9
2023-04-01T06:41:02.516Z,999.8
2023-04-01T06:42:02.659Z,999.8
2023-04-01T06:43:02.596Z,999.7
2023-04-01T06:44:02.585Z,999.8
2023-04-01T06:45:02.689Z,999.9
2023-04-01T06:46:02.608Z,999.9
2023-04-01T06:47:02.610Z,999.8
2023-04-01T06:48:03.166Z,999.9
2023-04-01T06:49:01.903Z,999.8
2023-04-01T06:50:01.948Z,999.9
2023-04-01T06:51:01.755Z,999.8
2023-04-01T06:52:01.772Z,999.8
2023-04-01T06:53:01.649Z,999.9
2023-04-01T06:54:01.703Z,999.9
2023-04-01T06:55:02.684Z,999.9
2023-04-01T06:56:02.550Z,999.9
2023-04-01T06:57:02.742Z,999.8
2023-04-01T06:58:02.482Z,999.9
2023-04-01T06:59:02.537Z,999.8
2023-04-01T07:00:02.436Z,999.9
2023-04-01T07:01:02.536Z,999.8
2023-04-01T07:02:02.789Z,999.9
2023-04-01T07:03:07.064Z,999.9
2023-04-01T07:04:01.940Z,999.8
2023-04-01T07:05:01.799Z,999.9
2023-04-01T07:06:02.702Z,999.9
2023-04-01T07:07:02.712Z,999.9
2023-04-01T07:08:02.954Z,1000
2023-04-01T07:09:06.345Z,999.9
2023-04-01T07:10:02.022Z,999.9
2023-04-01T07:11:01.999Z,1000
2023-04-01T07:12:01.849Z,999.9
2023-04-01T07:13:01.904Z,999.9
2023-04-01T07:14:01.701Z,999.9
2023-04-01T07:15:01.804Z,999.9
2023-04-01T07:16:02.792Z,999.9
2023-04-01T07:17:02.749Z,1000
2023-04-01T07:18:02.879Z,999.9
2023-04-01T07:19:02.615Z,999.9
2023-04-01T07:20:02.724Z,1000
2023-04-01T07:21:02.522Z,1000
2023-04-01T07:22:03.136Z,999.9
2023-04-01T07:23:01.841Z,1000
2023-04-01T07:24:01.874Z,999.9
2023-04-01T07:25:01.766Z,1000
2023-04-01T07:26:01.829Z,1000
2023-04-01T07:27:01.658Z,1000
2023-04-01T07:28:02.713Z,1000
2023-04-01T07:29:02.620Z,1000
2023-04-01T07:30:02.677Z,1000
2023-04-01T07:31:02.656Z,1000.1
2023-04-01T07:33:01.764Z,1000
2023-04-01T07:34:02.709Z,1000.1
2023-04-01T07:35:02.539Z,1000.1
2023-04-01T07:36:02.710Z,1000.1
2023-04-01T07:37:02.618Z,1000.1
2023-04-01T07:38:02.586Z,1000.1
2023-04-01T07:39:02.698Z,1000.1
2023-04-01T07:40:02.550Z,1000.1
2023-04-01T07:41:02.425Z,1000.1
2023-04-01T07:42:02.477Z,1000.1
2023-04-01T07:43:02.395Z,1000.1
2023-04-01T07:44:02.513Z,1000.1
2023-04-01T07:45:02.354Z,1000.1
2023-04-01T07:46:02.554Z,1000.1
2023-04-01T07:48:02.177Z,1000.1
2023-04-01T07:49:01.926Z,1000.2
2023-04-01T07:50:02.016Z,1000.1
2023-04-01T07:51:01.810Z,1000.1
2023-04-01T07:52:01.809Z,1000.1
2023-04-01T07:53:01.662Z,1000.1
2023-04-01T07:54:01.733Z,1000.2
2023-04-01T07:55:02.715Z,1000.2
2023-04-01T07:56:02.615Z,1000.2
2023-04-01T07:57:02.847Z,1000.2
2023-04-01T07:58:02.555Z,1000.2
2023-04-01T07:59:02.651Z,1000.2
2023-04-01T08:00:02.570Z,1000.2
2023-04-01T08:01:02.550Z,1000.2
2023-04-01T08:02:02.545Z,1000.2
2023-04-01T08:03:02.832Z,1000.2
2023-04-01T08:04:03.056Z,1000.2
2023-04-01T08:05:02.330Z,1000.2
2023-04-01T08:06:02.077Z,1000.2
2023-04-01T08:07:02.118Z,1000.2
2023-04-01T08:08:01.974Z,1000.2
2023-04-01T08:09:02.025Z,1000.2
2023-04-01T08:10:01.849Z,1000.3
2023-04-01T08:11:01.842Z,1000.2
2023-04-01T08:12:01.672Z,1000.2
2023-04-01T08:13:01.747Z,1000.2
2023-04-01T08:14:02.666Z,1000.3
2023-04-01T08:15:02.609Z,1000.2
2023-04-01T08:16:02.750Z,1000.2
2023-04-01T08:18:02.044Z,1000.3
2023-04-01T08:19:01.743Z,1000.3
2023-04-01T08:20:01.745Z,1000.3
2023-04-01T08:21:02.622Z,1000.4
2023-04-01T08:22:02.548Z,1000.3
2023-04-01T08:23:02.663Z,1000.3
2023-04-01T08:24:02.526Z,1000.3
2023-04-01T08:25:02.586Z,1000.4
2023-04-01T08:26:02.486Z,1000.3
2023-04-01T08:27:02.557Z,1000.4
2023-04-01T08:28:02.503Z,1000.3
2023-04-01T08:29:02.479Z,1000.3
2023-04-01T08:30:02.491Z,1000.4
2023-04-01T08:31:02.282Z,1000.3
2023-04-01T08:32:02.744Z,1000.3
2023-04-01T08:33:02.726Z,1000.4
2023-04-01T08:34:02.411Z,1000.3
2023-04-01T08:35:02.458Z,1000.4
2023-04-01T08:36:02.570Z,1000.4
2023-04-01T08:37:02.309Z,1000.3
2023-04-01T08:38:02.344Z,1000.3
2023-04-01T08:39:02.324Z,1000.4
2023-04-01T08:40:02.071Z,1000.3
2023-04-01T08:41:02.080Z,1000.3
2023-04-01T08:42:01.951Z,1000.2
2023-04-01T08:43:01.949Z,1000.3
2023-04-01T08:44:01.811Z,1000.3
2023-04-01T08:45:01.932Z,1000.2
2023-04-01T08:46:01.901Z,1000.2
2023-04-01T08:47:01.935Z,1000.4
2023-04-01T08:48:02.269Z,1000.3
2023-04-01T08:49:02.020Z,1000.3
2023-04-01T08:50:02.064Z,1000.3
2023-04-01T08:51:01.940Z,1000.3
2023-04-01T08:52:02.013Z,1000.3
2023-04-01T08:53:01.819Z,1000.3
2023-04-01T08:54:01.860Z,1000.2
2023-04-01T08:55:01.743Z,1000.2
2023-04-01T08:56:01.798Z,1000.3
2023-04-01T08:57:01.696Z,1000.3
2023-04-01T08:58:02.715Z,1000.3
2023-04-01T08:59:02.687Z,1000.3
2023-04-01T09:00:03.873Z,1000.3
2023-04-01T09:01:01.714Z,1000.4
2023-04-01T09:02:02.878Z,1000.4
2023-04-01T09:03:03.142Z,1000.3
2023-04-01T09:04:02.445Z,1000.4
2023-04-01T09:05:02.251Z,1000.3
2023-04-01T09:06:02.101Z,1000.4
2023-04-01T09:07:02.178Z,1000.3
2023-04-01T09:08:02.048Z,1000.3
2023-04-01T09:09:02.037Z,1000.3
2023-04-01T09:10:01.928Z,1000.3
2023-04-01T09:11:01.996Z,1000.3
2023-04-01T09:12:01.930Z,1000.3
2023-04-01T09:13:01.891Z,1000.3
2023-04-01T09:14:01.700Z,1000.3
2023-04-01T09:15:01.809Z,1000.3
2023-04-01T09:16:01.854Z,1000.3
2023-04-01T09:17:02.612Z,1000.3
2023-04-01T09:18:02.818Z,1000.3
2023-04-01T09:19:02.624Z,1000.3
2023-04-01T09:20:02.733Z,1000.3
2023-04-01T09:21:02.527Z,1000.3
2023-04-01T09:22:02.607Z,1000.3
2023-04-01T09:23:02.509Z,1000.3
2023-04-01T09:24:02.627Z,1000.2
2023-04-01T09:25:02.511Z,1000.3
2023-04-01T09:26:02.576Z,1000.4
2023-04-01T09:27:02.456Z,1000.4
2023-04-01T09:28:02.499Z,1000.4
2023-04-01T09:29:02.367Z,1000.4
2023-04-01T09:30:02.414Z,1000.4
2023-04-01T09:31:02.599Z,1000.5
2023-04-01T09:33:02.315Z,1000.5
2023-04-01T09:34:02.262Z,1000.4
2023-04-01T09:35:02.037Z,1000.5
2023-04-01T09:36:02.180Z,1000.4
2023-04-01T09:37:01.943Z,1000.5
2023-04-01T09:38:02.007Z,1000.5
2023-04-01T09:39:01.851Z,1000.4
2023-04-01T09:40:01.859Z,1000.5
2023-04-01T09:41:01.728Z,1000.4
2023-04-01T09:42:01.778Z,1000.5
2023-04-01T09:43:01.683Z,1000.4
2023-04-01T09:44:01.756Z,1000.5
2023-04-01T09:45:02.749Z,1000.4
2023-04-01T09:46:02.748Z,1000.5
2023-04-01T09:48:02.141Z,1000.3
2023-04-01T09:49:01.848Z,1000.4
2023-04-01T09:50:01.838Z,1000.4
2023-04-01T09:51:01.695Z,1000.4
2023-04-01T09:52:01.741Z,1000.4
2023-04-01T09:53:03.062Z,1000.4
2023-04-01T09:54:01.720Z,1000.4
2023-04-01T09:55:01.825Z,1000.5
2023-04-01T09:56:01.680Z,1000.4
2023-04-01T09:57:02.887Z,1000.4
2023-04-01T09:58:01.637Z,1000.4
2023-04-01T09:59:02.709Z,1000.5
2023-04-01T10:00:02.591Z,1000.5
2023-04-01T10:01:02.693Z,1000.5
2023-04-01T10:02:02.622Z,1000.5
2023-04-01T10:03:02.868Z,1000.4
2023-04-01T10:04:02.550Z,1000.5
2023-04-01T10:05:02.693Z,1000.4
2023-04-01T10:06:02.726Z,1000.3
2023-04-01T10:07:02.549Z,1000.4
2023-04-01T10:08:02.406Z,1000.4
2023-04-01T10:09:02.434Z,1000.4
2023-04-01T10:10:02.359Z,1000.4
2023-04-01T10:11:02.210Z,1000.4
2023-04-01T10:12:02.261Z,1000.4
2023-04-01T10:13:02.243Z,1000.4
2023-04-01T10:14:02.221Z,1000.4
2023-04-01T10:15:02.235Z,1000.4
2023-04-01T10:16:02.317Z,1000.4
2023-04-01T10:17:02.049Z,1000.4
2023-04-01T10:18:02.306Z,1000.4
2023-04-01T10:19:02.030Z,1000.4
2023-04-01T10:20:02.166Z,1000.5
2023-04-01T10:21:01.912Z,1000.4
2023-04-01T10:22:01.899Z,1000.5
2023-04-01T10:23:01.741Z,1000.4
2023-04-01T10:24:01.790Z,1000.4
2023-04-01T10:25:06.136Z,1000.5
2023-04-01T10:26:01.946Z,1000.4
2023-04-01T10:27:01.947Z,1000.4
2023-04-01T10:28:01.879Z,1000.4
2023-04-01T10:29:01.923Z,1000.4
2023-04-01T10:30:01.770Z,1000.4
2023-04-01T10:31:01.865Z,1000.4
2023-04-01T10:32:01.873Z,1000.4
2023-04-01T10:33:02.020Z,1000.4
2023-04-01T10:34:01.744Z,1000.5
2023-04-01T10:35:01.848Z,1000.4
2023-04-01T10:36:01.767Z,1000.4
2023-04-01T10:37:01.718Z,1000.4
2023-04-01T10:38:02.679Z,1000.4
2023-04-01T10:39:02.552Z,1000.4
2023-04-01T10:40:02.616Z,1000.4
2023-04-01T10:41:02.500Z,1000.4
2023-04-01T10:42:02.530Z,1000.4
2023-04-01T10:43:02.428Z,1000.4
2023-04-01T10:44:02.467Z,1000.4
2023-04-01T10:45:02.473Z,1000.5
2023-04-01T10:46:02.385Z,1000.4
2023-04-01T10:47:02.420Z,1000.4
2023-04-01T10:48:02.527Z,1000.5
2023-04-01T10:49:02.452Z,1000.4
2023-04-01T10:50:02.313Z,1000.4
2023-04-01T10:51:02.361Z,1000.5
2023-04-01T10:52:02.427Z,1000.5
2023-04-01T10:53:02.179Z,1000.5
2023-04-01T10:54:02.248Z,1000.5
2023-04-01T10:55:02.290Z,1000.4
2023-04-01T10:56:02.030Z,1000.4
2023-04-01T10:57:02.482Z,1000.4
2023-04-01T10:58:02.240Z,1000.5
2023-04-01T10:59:02.214Z,1000.4
2023-04-01T11:00:02.438Z,1000.5
2023-04-01T11:01:02.478Z,1000.5
2023-04-01T11:02:12.781Z,1000.4
2023-04-01T11:03:03.135Z,1000.4
2023-04-01T11:04:02.106Z,1000.4
2023-04-01T11:05:01.763Z,1000.4
2023-04-01T11:06:01.826Z,1000.4
2023-04-01T11:07:01.664Z,1000.5
2023-04-01T11:08:07.711Z,1000.5
2023-04-01T11:09:02.471Z,1000.4
2023-04-01T11:10:02.374Z,1000.4
2023-04-01T11:11:02.343Z,1000.4
2023-04-01T11:12:02.295Z,1000.3
2023-04-01T11:13:02.112Z,1000.4
2023-04-01T11:14:02.195Z,1000.4
2023-04-01T11:15:02.016Z,1000.4
2023-04-01T11:16:02.210Z,1000.3
2023-04-01T11:17:02.622Z,1000.4
2023-04-01T11:18:02.576Z,1000.4
2023-04-01T11:19:02.384Z,1000.3
2023-04-01T11:20:02.340Z,1000.4
2023-04-01T11:21:02.267Z,1000.3
2023-04-01T11:22:02.288Z,1000.4
2023-04-01T11:23:02.253Z,1000.4
2023-04-01T11:24:06.476Z,1000.4
2023-04-01T11:25:02.157Z,1000.4
2023-04-01T11:26:02.208Z,1000.4
2023-04-01T11:27:02.365Z,1000.4
2023-04-01T11:28:02.040Z,1000.4
2023-04-01T11:29:02.193Z,1000.4
2023-04-01T11:30:02.072Z,1000.4
2023-04-01T11:31:02.198Z,1000.4
2023-04-01T11:32:02.291Z,1000.3
2023-04-01T11:33:02.388Z,1000.3
2023-04-01T11:34:02.244Z,1000.4
2023-04-01T11:35:02.098Z,1000.4
2023-04-01T11:36:02.212Z,1000.4
2023-04-01T11:37:02.391Z,1000.3
2023-04-01T11:38:02.025Z,1000.3
2023-04-01T11:39:04.245Z,1000.3
2023-04-01T11:40:01.944Z,1000.4
2023-04-01T11:41:01.950Z,1000.4
2023-04-01T11:42:01.829Z,1000.4
2023-04-01T11:43:01.870Z,1000.4
2023-04-01T11:44:01.732Z,1000.3
2023-04-01T11:45:01.828Z,1000.3
2023-04-01T11:46:01.736Z,1000.3
2023-04-01T11:47:01.888Z,1000.4
2023-04-01T11:48:02.064Z,1000.4
2023-04-01T11:49:01.781Z,1000.4
2023-04-01T11:50:01.806Z,1000.3
2023-04-01T11:51:01.616Z,1000.4
2023-04-01T11:52:02.712Z,1000.5
2023-04-01T11:53:02.603Z,1000.4
2023-04-01T11:54:02.631Z,1000.4
2023-04-01T11:55:02.505Z,1000.4
2023-04-01T11:56:02.543Z,1000.4
2023-04-01T11:57:02.482Z,1000.5
2023-04-01T11:58:02.556Z,1000.5
2023-04-01T11:59:02.406Z,1000.4
2023-04-01T12:00:03.421Z,1000.4
2023-04-01T12:01:02.277Z,1000.4
2023-04-01T12:02:02.384Z,1000.4
2023-04-01T12:03:02.815Z,1000.4
2023-04-01T12:04:03.401Z,1000.4
2023-04-01T12:05:02.576Z,1000.4
2023-04-01T12:06:02.334Z,1000.4
2023-04-01T12:07:02.315Z,1000.4
2023-04-01T12:08:02.181Z,1000.4
2023-04-01T12:09:02.161Z,1000.4
2023-04-01T12:10:02.031Z,1000.4
2023-04-01T12:11:01.993Z,1000.4
2023-04-01T12:12:01.901Z,1000.5
2023-04-01T12:13:02.627Z,1000.4
2023-04-01T12:14:02.425Z,1000.4
2023-04-01T12:15:02.371Z,1000.4
2023-04-01T12:16:02.500Z,1000.5
2023-04-01T12:17:02.313Z,1000.5
2023-04-01T12:18:02.377Z,1000.5
2023-04-01T12:19:02.184Z,1000.5
2023-04-01T12:20:02.061Z,1000.5
2023-04-01T12:21:02.114Z,1000.5
2023-04-01T12:22:01.986Z,1000.4
2023-04-01T12:23:02.081Z,1000.5
2023-04-01T12:24:02.008Z,1000.5
2023-04-01T12:25:02.128Z,1000.5
2023-04-01T12:26:01.978Z,1000.5
2023-04-01T12:27:01.966Z,1000.5
2023-04-01T12:28:01.785Z,1000.5
2023-04-01T12:29:01.866Z,1000.5
2023-04-01T12:30:01.738Z,1000.5
2023-04-01T12:31:01.779Z,1000.5
2023-04-01T12:32:02.860Z,1000.5
2023-04-01T12:33:02.759Z,1000.5
2023-04-01T12:34:02.661Z,1000.5
2023-04-01T12:35:02.542Z,1000.6
2023-04-01T12:36:02.840Z,1000.5
2023-04-01T12:37:02.552Z,1000.5
2023-04-01T12:38:02.726Z,1000.5
2023-04-01T12:39:02.458Z,1000.5
2023-04-01T12:40:02.535Z,1000.5
2023-04-01T12:41:02.399Z,1000.6
2023-04-01T12:42:02.418Z,1000.6
2023-04-01T12:43:02.389Z,1000.6
2023-04-01T12:44:02.286Z,1000.6
2023-04-01T12:45:02.308Z,1000.6
2023-04-01T12:46:02.350Z,1000.5
2023-04-01T12:47:02.181Z,1000.6
2023-04-01T12:48:02.334Z,1000.5
2023-04-01T12:49:02.020Z,1000.5
2023-04-01T12:50:02.103Z,1000.7
2023-04-01T12:51:01.916Z,1000.6
2023-04-01T12:52:01.973Z,1000.6
2023-04-01T12:53:01.832Z,1000.5
2023-04-01T12:54:01.924Z,1000.6
2023-04-01T12:55:01.783Z,1000.6
2023-04-01T12:56:01.828Z,1000.6